sensor_id;sensor_type;location;lat;lon;timestamp;temperature;humidity
2543;DHT22;1116;51.502;7.414;2023-06-22T00:01:41;22.00;3.70
2543;DHT22;1116;51.502;7.414;2023-06-22T00:04:12;22.10;4.50
2543;DHT22;1116;51.502;7.414;2023-06-22T00:06:46;22.20;4.60
2543;DHT22;1116;51.502;7.414;2023-06-22T00:09:17;22.20;4.50
2543;DHT22;1116;51.502;7.414;2023-06-22T00:11:48;22.50;3.80
2543;DHT22;1116;51.502;7.414;2023-06-22T00:14:19;22.10;3.30
2543;DHT22;1116;51.502;7.414;2023-06-22T00:16:50;22.10;4.50
2543;DHT22;1116;51.502;7.414;2023-06-22T00:19:22;22.10;4.40
2543;DHT22;1116;51.502;7.414;2023-06-22T00:21:56;22.00;4.50
2543;DHT22;1116;51.502;7.414;2023-06-22T00:24:28;22.00;5.00
2543;DHT22;1116;51.502;7.414;2023-06-22T00:26:59;22.00;4.80
2543;DHT22;1116;51.502;7.414;2023-06-22T00:29:30;22.00;4.40
2543;DHT22;1116;51.502;7.414;2023-06-22T00:32:01;22.30;4.60
2543;DHT22;1116;51.502;7.414;2023-06-22T00:34:32;22.00;4.80
2543;DHT22;1116;51.502;7.414;2023-06-22T00:37:06;22.00;6.00
2543;DHT22;1116;51.502;7.414;2023-06-22T00:39:39;22.00;5.70
2543;DHT22;1116;51.502;7.414;2023-06-22T00:42:10;21.90;6.10
2543;DHT22;1116;51.502;7.414;2023-06-22T00:44:41;21.80;5.30
2543;DHT22;1116;51.502;7.414;2023-06-22T00:47:13;21.80;6.80
2543;DHT22;1116;51.502;7.414;2023-06-22T00:49:45;21.80;7.10
2543;DHT22;1116;51.502;7.414;2023-06-22T00:52:22;21.80;6.40
2543;DHT22;1116;51.502;7.414;2023-06-22T00:54:57;21.80;5.90
2543;DHT22;1116;51.502;7.414;2023-06-22T00:57:31;21.80;5.60
2543;DHT22;1116;51.502;7.414;2023-06-22T01:00:07;21.80;7.10
2543;DHT22;1116;51.502;7.414;2023-06-22T01:02:51;21.80;5.80
2543;DHT22;1116;51.502;7.414;2023-06-22T01:05:23;21.80;6.50
2543;DHT22;1116;51.502;7.414;2023-06-22T01:08:18;21.80;6.20
2543;DHT22;1116;51.502;7.414;2023-06-22T01:10:53;22.30;7.40
2543;DHT22;1116;51.502;7.414;2023-06-22T01:13:32;21.80;6.00
2543;DHT22;1116;51.502;7.414;2023-06-22T01:16:09;21.90;7.00
2543;DHT22;1116;51.502;7.414;2023-06-22T01:18:42;21.80;5.80
2543;DHT22;1116;51.502;7.414;2023-06-22T01:21:16;21.70;6.20
2543;DHT22;1116;51.502;7.414;2023-06-22T01:24:02;21.70;6.10
2543;DHT22;1116;51.502;7.414;2023-06-22T01:26:38;21.70;6.60
2543;DHT22;1116;51.502;7.414;2023-06-22T01:29:14;21.70;7.00
2543;DHT22;1116;51.502;7.414;2023-06-22T01:31:48;21.70;8.20
2543;DHT22;1116;51.502;7.414;2023-06-22T01:34:21;21.60;7.20
2543;DHT22;1116;51.502;7.414;2023-06-22T01:36:53;21.60;8.00
2543;DHT22;1116;51.502;7.414;2023-06-22T01:39:24;21.60;8.10
2543;DHT22;1116;51.502;7.414;2023-06-22T01:41:56;21.60;7.70
2543;DHT22;1116;51.502;7.414;2023-06-22T01:44:30;21.60;7.50
2543;DHT22;1116;51.502;7.414;2023-06-22T01:47:02;21.60;7.30
2543;DHT22;1116;51.502;7.414;2023-06-22T01:49:33;21.50;8.50
2543;DHT22;1116;51.502;7.414;2023-06-22T01:52:05;21.50;8.50
2543;DHT22;1116;51.502;7.414;2023-06-22T01:54:37;21.50;8.80
2543;DHT22;1116;51.502;7.414;2023-06-22T01:57:08;21.60;8.90
2543;DHT22;1116;51.502;7.414;2023-06-22T01:59:49;21.60;8.10
2543;DHT22;1116;51.502;7.414;2023-06-22T02:02:22;21.60;8.20
2543;DHT22;1116;51.502;7.414;2023-06-22T02:05:01;21.50;8.80
2543;DHT22;1116;51.502;7.414;2023-06-22T02:07:39;21.60;9.40
2543;DHT22;1116;51.502;7.414;2023-06-22T02:10:14;21.50;8.80
2543;DHT22;1116;51.502;7.414;2023-06-22T02:12:47;21.60;8.90
2543;DHT22;1116;51.502;7.414;2023-06-22T02:15:21;21.60;8.30
2543;DHT22;1116;51.502;7.414;2023-06-22T02:17:53;21.80;9.30
2543;DHT22;1116;51.502;7.414;2023-06-22T02:20:24;21.60;8.90
2543;DHT22;1116;51.502;7.414;2023-06-22T02:22:56;21.50;9.90
2543;DHT22;1116;51.502;7.414;2023-06-22T02:25:27;21.40;9.30
2543;DHT22;1116;51.502;7.414;2023-06-22T02:27:58;21.40;9.20
2543;DHT22;1116;51.502;7.414;2023-06-22T02:30:32;21.30;9.30
2543;DHT22;1116;51.502;7.414;2023-06-22T02:33:02;21.40;10.00
2543;DHT22;1116;51.502;7.414;2023-06-22T02:35:33;21.40;10.80
2543;DHT22;1116;51.502;7.414;2023-06-22T02:38:07;21.30;11.40
2543;DHT22;1116;51.502;7.414;2023-06-22T02:40:38;21.30;11.00
2543;DHT22;1116;51.502;7.414;2023-06-22T02:43:09;21.30;10.70
2543;DHT22;1116;51.502;7.414;2023-06-22T02:45:44;21.20;10.40
2543;DHT22;1116;51.502;7.414;2023-06-22T02:48:15;21.20;10.60
2543;DHT22;1116;51.502;7.414;2023-06-22T02:50:46;21.20;12.20
2543;DHT22;1116;51.502;7.414;2023-06-22T02:53:17;21.20;11.70
2543;DHT22;1116;51.502;7.414;2023-06-22T02:55:49;21.10;11.80
2543;DHT22;1116;51.502;7.414;2023-06-22T02:58:20;21.10;12.00
2543;DHT22;1116;51.502;7.414;2023-06-22T03:00:54;21.10;11.90
2543;DHT22;1116;51.502;7.414;2023-06-22T03:03:25;21.10;11.50
2543;DHT22;1116;51.502;7.414;2023-06-22T03:05:57;21.10;12.70
2543;DHT22;1116;51.502;7.414;2023-06-22T03:08:29;21.10;12.60
2543;DHT22;1116;51.502;7.414;2023-06-22T03:11:00;21.10;12.80
2543;DHT22;1116;51.502;7.414;2023-06-22T03:13:31;21.10;12.80
2543;DHT22;1116;51.502;7.414;2023-06-22T03:16:04;21.10;13.10
2543;DHT22;1116;51.502;7.414;2023-06-22T03:18:35;21.20;13.20
2543;DHT22;1116;51.502;7.414;2023-06-22T03:21:06;21.20;12.10
2543;DHT22;1116;51.502;7.414;2023-06-22T03:23:37;21.10;12.00
2543;DHT22;1116;51.502;7.414;2023-06-22T03:26:09;21.10;12.90
2543;DHT22;1116;51.502;7.414;2023-06-22T03:28:40;21.10;12.60
2543;DHT22;1116;51.502;7.414;2023-06-22T03:31:14;21.10;13.10
2543;DHT22;1116;51.502;7.414;2023-06-22T03:33:50;21.10;13.10
2543;DHT22;1116;51.502;7.414;2023-06-22T03:36:21;21.10;13.10
2543;DHT22;1116;51.502;7.414;2023-06-22T03:38:53;21.10;13.10
2543;DHT22;1116;51.502;7.414;2023-06-22T03:41:24;21.10;13.10
2543;DHT22;1116;51.502;7.414;2023-06-22T03:43:55;21.00;13.10
2543;DHT22;1116;51.502;7.414;2023-06-22T03:46:28;21.10;13.10
2543;DHT22;1116;51.502;7.414;2023-06-22T03:48:59;21.10;13.20
2543;DHT22;1116;51.502;7.414;2023-06-22T03:51:32;21.10;13.10
2543;DHT22;1116;51.502;7.414;2023-06-22T03:54:03;21.10;14.10
2543;DHT22;1116;51.502;7.414;2023-06-22T03:56:34;21.10;13.40
2543;DHT22;1116;51.502;7.414;2023-06-22T03:59:06;21.10;13.10
2543;DHT22;1116;51.502;7.414;2023-06-22T04:01:40;21.10;13.30
2543;DHT22;1116;51.502;7.414;2023-06-22T04:04:11;21.10;13.20
2543;DHT22;1116;51.502;7.414;2023-06-22T04:06:42;20.90;13.00
2543;DHT22;1116;51.502;7.414;2023-06-22T04:09:13;21.00;13.10
2543;DHT22;1116;51.502;7.414;2023-06-22T04:11:45;20.90;13.10
2543;DHT22;1116;51.502;7.414;2023-06-22T04:14:16;21.10;13.10
2543;DHT22;1116;51.502;7.414;2023-06-22T04:16:49;21.20;13.20
2543;DHT22;1116;51.502;7.414;2023-06-22T04:19:20;21.20;13.20
2543;DHT22;1116;51.502;7.414;2023-06-22T04:21:51;21.30;13.30
2543;DHT22;1116;51.502;7.414;2023-06-22T04:24:22;21.00;13.00
2543;DHT22;1116;51.502;7.414;2023-06-22T04:26:53;21.00;13.10
2543;DHT22;1116;51.502;7.414;2023-06-22T04:29:24;21.10;13.10
2543;DHT22;1116;51.502;7.414;2023-06-22T04:31:59;21.10;13.10
2543;DHT22;1116;51.502;7.414;2023-06-22T04:34:31;21.10;13.10
2543;DHT22;1116;51.502;7.414;2023-06-22T04:37:02;21.10;12.40
2543;DHT22;1116;51.502;7.414;2023-06-22T04:39:33;21.10;12.70
2543;DHT22;1116;51.502;7.414;2023-06-22T04:42:05;21.20;12.20
2543;DHT22;1116;51.502;7.414;2023-06-22T04:44:36;21.10;11.60
2543;DHT22;1116;51.502;7.414;2023-06-22T04:47:10;21.00;13.00
2543;DHT22;1116;51.502;7.414;2023-06-22T04:49:41;21.10;13.10
2543;DHT22;1116;51.502;7.414;2023-06-22T04:52:13;20.90;13.00
2543;DHT22;1116;51.502;7.414;2023-06-22T04:54:48;20.90;13.00
2543;DHT22;1116;51.502;7.414;2023-06-22T04:57:23;21.00;13.10
2543;DHT22;1116;51.502;7.414;2023-06-22T05:00:01;21.40;12.40
2543;DHT22;1116;51.502;7.414;2023-06-22T05:02:43;21.10;12.90
2543;DHT22;1116;51.502;7.414;2023-06-22T05:05:27;21.10;12.30
2543;DHT22;1116;51.502;7.414;2023-06-22T05:08:07;21.10;11.40
2543;DHT22;1116;51.502;7.414;2023-06-22T05:10:47;21.10;11.60
2543;DHT22;1116;51.502;7.414;2023-06-22T05:13:32;21.20;11.70
2543;DHT22;1116;51.502;7.414;2023-06-22T05:16:04;21.10;10.60
2543;DHT22;1116;51.502;7.414;2023-06-22T05:18:37;21.10;11.60
2543;DHT22;1116;51.502;7.414;2023-06-22T05:21:10;21.10;10.50
2543;DHT22;1116;51.502;7.414;2023-06-22T05:23:40;21.00;10.40
2543;DHT22;1116;51.502;7.414;2023-06-22T05:26:11;21.10;10.80
2543;DHT22;1116;51.502;7.414;2023-06-22T05:28:42;21.10;10.40
2543;DHT22;1116;51.502;7.414;2023-06-22T05:31:15;21.10;10.80
2543;DHT22;1116;51.502;7.414;2023-06-22T05:33:52;21.10;11.60
2543;DHT22;1116;51.502;7.414;2023-06-22T05:36:23;21.20;10.40
2543;DHT22;1116;51.502;7.414;2023-06-22T05:38:56;21.20;10.40
2543;DHT22;1116;51.502;7.414;2023-06-22T05:41:27;21.10;10.50
2543;DHT22;1116;51.502;7.414;2023-06-22T05:43:59;21.20;10.20
2543;DHT22;1116;51.502;7.414;2023-06-22T05:46:30;21.20;10.60
2543;DHT22;1116;51.502;7.414;2023-06-22T05:49:03;21.30;9.50
2543;DHT22;1116;51.502;7.414;2023-06-22T05:51:34;21.30;9.70
2543;DHT22;1116;51.502;7.414;2023-06-22T05:54:05;21.70;10.30
2543;DHT22;1116;51.502;7.414;2023-06-22T05:56:37;21.50;10.10
2543;DHT22;1116;51.502;7.414;2023-06-22T05:59:08;21.70;9.70
2543;DHT22;1116;51.502;7.414;2023-06-22T06:01:40;21.70;7.80
2543;DHT22;1116;51.502;7.414;2023-06-22T06:04:13;21.80;8.30
2543;DHT22;1116;51.502;7.414;2023-06-22T06:06:45;22.00;7.70
2543;DHT22;1116;51.502;7.414;2023-06-22T06:09:19;22.00;8.30
2543;DHT22;1116;51.502;7.414;2023-06-22T06:11:50;22.00;7.30
2543;DHT22;1116;51.502;7.414;2023-06-22T06:14:21;22.10;7.60
2543;DHT22;1116;51.502;7.414;2023-06-22T06:16:52;22.10;7.50
2543;DHT22;1116;51.502;7.414;2023-06-22T06:19:25;22.10;7.60
2543;DHT22;1116;51.502;7.414;2023-06-22T06:21:56;22.30;8.50
2543;DHT22;1116;51.502;7.414;2023-06-22T06:24:28;22.40;7.40
2543;DHT22;1116;51.502;7.414;2023-06-22T06:26:59;22.30;8.00
2543;DHT22;1116;51.502;7.414;2023-06-22T06:29:32;22.40;8.50
2543;DHT22;1116;51.502;7.414;2023-06-22T06:32:04;22.60;7.50
2543;DHT22;1116;51.502;7.414;2023-06-22T06:34:37;22.70;7.70
2543;DHT22;1116;51.502;7.414;2023-06-22T06:37:08;22.70;7.70
2543;DHT22;1116;51.502;7.414;2023-06-22T06:39:39;22.60;7.70
2543;DHT22;1116;51.502;7.414;2023-06-22T06:42:11;22.60;8.00
2543;DHT22;1116;51.502;7.414;2023-06-22T06:44:42;22.60;8.40
2543;DHT22;1116;51.502;7.414;2023-06-22T06:47:13;22.60;8.80
2543;DHT22;1116;51.502;7.414;2023-06-22T06:49:47;22.60;7.70
2543;DHT22;1116;51.502;7.414;2023-06-22T06:52:18;22.70;9.60
2543;DHT22;1116;51.502;7.414;2023-06-22T06:54:49;22.80;8.20
2543;DHT22;1116;51.502;7.414;2023-06-22T06:57:21;23.00;8.30
2543;DHT22;1116;51.502;7.414;2023-06-22T06:59:57;23.00;8.10
2543;DHT22;1116;51.502;7.414;2023-06-22T07:02:28;22.90;7.50
2543;DHT22;1116;51.502;7.414;2023-06-22T07:05:02;22.90;8.10
2543;DHT22;1116;51.502;7.414;2023-06-22T07:07:34;22.90;8.80
2543;DHT22;1116;51.502;7.414;2023-06-22T07:10:07;22.90;8.70
2543;DHT22;1116;51.502;7.414;2023-06-22T07:12:38;22.80;8.80
2543;DHT22;1116;51.502;7.414;2023-06-22T07:15:10;22.80;9.70
2543;DHT22;1116;51.502;7.414;2023-06-22T07:17:42;22.80;9.50
2543;DHT22;1116;51.502;7.414;2023-06-22T07:20:15;22.70;10.00
2543;DHT22;1116;51.502;7.414;2023-06-22T07:22:47;22.60;10.30
2543;DHT22;1116;51.502;7.414;2023-06-22T07:25:19;22.50;10.50
2543;DHT22;1116;51.502;7.414;2023-06-22T07:27:58;22.60;11.30
2543;DHT22;1116;51.502;7.414;2023-06-22T07:30:31;22.60;11.30
2543;DHT22;1116;51.502;7.414;2023-06-22T07:33:03;22.60;11.40
2543;DHT22;1116;51.502;7.414;2023-06-22T07:35:39;22.60;11.00
2543;DHT22;1116;51.502;7.414;2023-06-22T07:38:10;22.50;11.50
2543;DHT22;1116;51.502;7.414;2023-06-22T07:40:42;22.60;11.60
2543;DHT22;1116;51.502;7.414;2023-06-22T07:43:14;22.50;11.50
2543;DHT22;1116;51.502;7.414;2023-06-22T07:45:48;22.50;12.30
2543;DHT22;1116;51.502;7.414;2023-06-22T07:48:21;22.50;11.80
2543;DHT22;1116;51.502;7.414;2023-06-22T07:50:55;22.50;12.40
2543;DHT22;1116;51.502;7.414;2023-06-22T07:53:30;22.50;13.10
2543;DHT22;1116;51.502;7.414;2023-06-22T07:56:02;22.70;13.80
2543;DHT22;1116;51.502;7.414;2023-06-22T07:58:40;22.70;14.00
2543;DHT22;1116;51.502;7.414;2023-06-22T08:01:14;22.80;15.80
2543;DHT22;1116;51.502;7.414;2023-06-22T08:03:49;22.70;15.70
2543;DHT22;1116;51.502;7.414;2023-06-22T08:06:25;22.80;15.70
2543;DHT22;1116;51.502;7.414;2023-06-22T08:08:57;22.80;16.90
2543;DHT22;1116;51.502;7.414;2023-06-22T08:11:28;23.00;18.10
2543;DHT22;1116;51.502;7.414;2023-06-22T08:13:59;23.00;15.90
2543;DHT22;1116;51.502;7.414;2023-06-22T08:16:31;22.90;18.80
2543;DHT22;1116;51.502;7.414;2023-06-22T08:19:05;23.10;17.50
2543;DHT22;1116;51.502;7.414;2023-06-22T08:21:40;23.30;17.20
2543;DHT22;1116;51.502;7.414;2023-06-22T08:24:11;23.10;14.60
2543;DHT22;1116;51.502;7.414;2023-06-22T08:26:51;23.10;15.50
2543;DHT22;1116;51.502;7.414;2023-06-22T08:29:22;23.20;16.90
2543;DHT22;1116;51.502;7.414;2023-06-22T08:31:53;23.20;15.80
2543;DHT22;1116;51.502;7.414;2023-06-22T08:34:40;23.20;15.40
2543;DHT22;1116;51.502;7.414;2023-06-22T08:37:35;23.40;15.80
2543;DHT22;1116;51.502;7.414;2023-06-22T08:40:10;23.80;15.80
2543;DHT22;1116;51.502;7.414;2023-06-22T08:42:41;24.10;15.20
2543;DHT22;1116;51.502;7.414;2023-06-22T08:45:13;24.20;12.50
2543;DHT22;1116;51.502;7.414;2023-06-22T08:47:45;24.30;12.80
2543;DHT22;1116;51.502;7.414;2023-06-22T08:50:16;24.40;11.20
2543;DHT22;1116;51.502;7.414;2023-06-22T08:52:49;24.50;9.80
2543;DHT22;1116;51.502;7.414;2023-06-22T08:55:20;24.70;10.60
2543;DHT22;1116;51.502;7.414;2023-06-22T08:57:51;24.50;9.20
2543;DHT22;1116;51.502;7.414;2023-06-22T09:00:22;24.70;8.40
2543;DHT22;1116;51.502;7.414;2023-06-22T09:02:53;24.90;8.10
2543;DHT22;1116;51.502;7.414;2023-06-22T09:05:27;24.90;7.30
2543;DHT22;1116;51.502;7.414;2023-06-22T09:08:01;25.00;6.50
2543;DHT22;1116;51.502;7.414;2023-06-22T09:10:32;25.20;6.60
2543;DHT22;1116;51.502;7.414;2023-06-22T09:13:03;25.50;6.70
2543;DHT22;1116;51.502;7.414;2023-06-22T09:15:34;25.50;3.90
2543;DHT22;1116;51.502;7.414;2023-06-22T09:18:06;25.80;4.20
2543;DHT22;1116;51.502;7.414;2023-06-22T09:20:36;25.90;3.50
2543;DHT22;1116;51.502;7.414;2023-06-22T09:23:10;26.40;2.50
2543;DHT22;1116;51.502;7.414;2023-06-22T09:25:41;26.50;1.60
2543;DHT22;1116;51.502;7.414;2023-06-22T09:28:12;26.70;1.00
2543;DHT22;1116;51.502;7.414;2023-06-22T09:30:43;26.90;1.00
2543;DHT22;1116;51.502;7.414;2023-06-22T09:33:14;27.10;1.00
2543;DHT22;1116;51.502;7.414;2023-06-22T09:35:47;27.40;1.00
2543;DHT22;1116;51.502;7.414;2023-06-22T09:38:22;27.20;1.00
2543;DHT22;1116;51.502;7.414;2023-06-22T09:40:53;27.50;1.00
2543;DHT22;1116;51.502;7.414;2023-06-22T09:43:24;27.50;1.00
2543;DHT22;1116;51.502;7.414;2023-06-22T09:45:55;27.70;1.00
2543;DHT22;1116;51.502;7.414;2023-06-22T09:48:26;27.30;1.00
2543;DHT22;1116;51.502;7.414;2023-06-22T09:50:57;27.30;1.00
2543;DHT22;1116;51.502;7.414;2023-06-22T09:53:31;27.20;1.00
2543;DHT22;1116;51.502;7.414;2023-06-22T09:56:03;27.10;1.00
2543;DHT22;1116;51.502;7.414;2023-06-22T09:58:34;27.30;1.00
2543;DHT22;1116;51.502;7.414;2023-06-22T10:01:05;27.30;1.00
2543;DHT22;1116;51.502;7.414;2023-06-22T10:03:36;27.50;1.00
2543;DHT22;1116;51.502;7.414;2023-06-22T10:06:07;27.50;1.00
2543;DHT22;1116;51.502;7.414;2023-06-22T10:08:41;27.50;1.00
2543;DHT22;1116;51.502;7.414;2023-06-22T10:11:12;27.60;1.00
2543;DHT22;1116;51.502;7.414;2023-06-22T10:13:43;27.60;1.00
2543;DHT22;1116;51.502;7.414;2023-06-22T10:16:14;27.80;1.00
2543;DHT22;1116;51.502;7.414;2023-06-22T10:18:45;27.90;1.00
2543;DHT22;1116;51.502;7.414;2023-06-22T10:21:16;27.70;1.00
2543;DHT22;1116;51.502;7.414;2023-06-22T10:23:50;27.50;1.00
2543;DHT22;1116;51.502;7.414;2023-06-22T10:26:21;27.50;1.00
2543;DHT22;1116;51.502;7.414;2023-06-22T10:28:51;27.50;1.00
2543;DHT22;1116;51.502;7.414;2023-06-22T10:31:42;27.70;1.00
2543;DHT22;1116;51.502;7.414;2023-06-22T10:34:13;28.00;1.00
2543;DHT22;1116;51.502;7.414;2023-06-22T10:36:44;28.00;1.00
2543;DHT22;1116;51.502;7.414;2023-06-22T10:39:19;28.00;1.00
2543;DHT22;1116;51.502;7.414;2023-06-22T10:41:50;28.00;1.00
2543;DHT22;1116;51.502;7.414;2023-06-22T10:44:21;28.10;1.00
2543;DHT22;1116;51.502;7.414;2023-06-22T10:46:52;28.40;1.00
2543;DHT22;1116;51.502;7.414;2023-06-22T10:49:26;28.60;1.00
2543;DHT22;1116;51.502;7.414;2023-06-22T10:51:57;28.50;1.00
2543;DHT22;1116;51.502;7.414;2023-06-22T10:54:32;28.40;1.00
2543;DHT22;1116;51.502;7.414;2023-06-22T10:57:03;28.40;1.00
2543;DHT22;1116;51.502;7.414;2023-06-22T10:59:34;28.20;1.00
2543;DHT22;1116;51.502;7.414;2023-06-22T11:02:05;28.00;1.00
2543;DHT22;1116;51.502;7.414;2023-06-22T11:04:36;28.00;1.00
2543;DHT22;1116;51.502;7.414;2023-06-22T11:07:08;28.10;1.00
2543;DHT22;1116;51.502;7.414;2023-06-22T11:09:43;28.00;1.00
2543;DHT22;1116;51.502;7.414;2023-06-22T11:12:14;27.70;1.00
2543;DHT22;1116;51.502;7.414;2023-06-22T11:14:45;27.90;1.00
2543;DHT22;1116;51.502;7.414;2023-06-22T11:17:18;27.60;1.00
2543;DHT22;1116;51.502;7.414;2023-06-22T11:19:50;27.60;1.00
2543;DHT22;1116;51.502;7.414;2023-06-22T11:22:21;27.50;1.00
2543;DHT22;1116;51.502;7.414;2023-06-22T11:24:54;27.20;1.00
2543;DHT22;1116;51.502;7.414;2023-06-22T11:27:25;27.20;1.00
2543;DHT22;1116;51.502;7.414;2023-06-22T11:29:56;27.20;1.00
2543;DHT22;1116;51.502;7.414;2023-06-22T11:32:27;27.00;1.00
2543;DHT22;1116;51.502;7.414;2023-06-22T11:34:58;26.70;3.40
2543;DHT22;1116;51.502;7.414;2023-06-22T11:37:29;26.20;3.50
2543;DHT22;1116;51.502;7.414;2023-06-22T11:40:04;26.00;7.10
2543;DHT22;1116;51.502;7.414;2023-06-22T11:42:37;25.80;9.10
2543;DHT22;1116;51.502;7.414;2023-06-22T11:45:08;25.70;12.30
2543;DHT22;1116;51.502;7.414;2023-06-22T11:47:39;25.50;14.20
2543;DHT22;1116;51.502;7.414;2023-06-22T11:50:10;25.50;15.40
2543;DHT22;1116;51.502;7.414;2023-06-22T11:52:41;25.30;16.90
2543;DHT22;1116;51.502;7.414;2023-06-22T11:55:15;25.20;18.10
2543;DHT22;1116;51.502;7.414;2023-06-22T11:57:55;25.10;19.10
2543;DHT22;1116;51.502;7.414;2023-06-22T12:00:28;24.90;21.00
2543;DHT22;1116;51.502;7.414;2023-06-22T12:03:09;25.00;24.70
2543;DHT22;1116;51.502;7.414;2023-06-22T12:05:40;24.70;28.10
2543;DHT22;1116;51.502;7.414;2023-06-22T12:08:11;24.50;27.40
2543;DHT22;1116;51.502;7.414;2023-06-22T12:10:45;24.50;32.60
2543;DHT22;1116;51.502;7.414;2023-06-22T12:13:17;24.50;33.90
2543;DHT22;1116;51.502;7.414;2023-06-22T12:15:48;24.40;35.80
2543;DHT22;1116;51.502;7.414;2023-06-22T12:18:20;24.40;37.00
2543;DHT22;1116;51.502;7.414;2023-06-22T12:20:51;24.30;40.90
2543;DHT22;1116;51.502;7.414;2023-06-22T12:23:22;24.30;42.70
2543;DHT22;1116;51.502;7.414;2023-06-22T12:25:55;24.10;41.60
2543;DHT22;1116;51.502;7.414;2023-06-22T12:28:27;23.90;49.30
2543;DHT22;1116;51.502;7.414;2023-06-22T12:30:58;23.70;61.40
2543;DHT22;1116;51.502;7.414;2023-06-22T12:33:29;23.70;90.20
2543;DHT22;1116;51.502;7.414;2023-06-22T12:36:01;23.70;81.00
2543;DHT22;1116;51.502;7.414;2023-06-22T12:38:33;23.60;99.90
2543;DHT22;1116;51.502;7.414;2023-06-22T12:41:06;23.50;99.90
2543;DHT22;1116;51.502;7.414;2023-06-22T12:43:37;23.20;99.90
2543;DHT22;1116;51.502;7.414;2023-06-22T12:46:08;22.90;99.90
2543;DHT22;1116;51.502;7.414;2023-06-22T12:48:39;22.70;99.90
2543;DHT22;1116;51.502;7.414;2023-06-22T12:51:11;22.70;99.90
2543;DHT22;1116;51.502;7.414;2023-06-22T12:53:42;22.70;99.90
2543;DHT22;1116;51.502;7.414;2023-06-22T12:56:16;22.70;99.90
2543;DHT22;1116;51.502;7.414;2023-06-22T12:58:47;22.80;99.90
2543;DHT22;1116;51.502;7.414;2023-06-22T13:01:18;23.30;99.90
2543;DHT22;1116;51.502;7.414;2023-06-22T13:03:50;23.00;99.90
2543;DHT22;1116;51.502;7.414;2023-06-22T13:06:21;23.00;99.90
2543;DHT22;1116;51.502;7.414;2023-06-22T13:08:52;23.20;99.90
2543;DHT22;1116;51.502;7.414;2023-06-22T13:11:46;23.20;99.90
2543;DHT22;1116;51.502;7.414;2023-06-22T13:14:17;23.10;99.90
2543;DHT22;1116;51.502;7.414;2023-06-22T13:16:48;23.20;99.90
2543;DHT22;1116;51.502;7.414;2023-06-22T13:19:19;23.10;99.90
2543;DHT22;1116;51.502;7.414;2023-06-22T13:21:50;23.10;99.90
2543;DHT22;1116;51.502;7.414;2023-06-22T13:24:21;23.10;99.90
2543;DHT22;1116;51.502;7.414;2023-06-22T13:26:54;23.20;99.90
2543;DHT22;1116;51.502;7.414;2023-06-22T13:29:25;23.30;99.90
2543;DHT22;1116;51.502;7.414;2023-06-22T13:31:56;23.30;99.90
2543;DHT22;1116;51.502;7.414;2023-06-22T13:34:27;23.50;99.90
2543;DHT22;1116;51.502;7.414;2023-06-22T13:36:58;23.60;99.90
2543;DHT22;1116;51.502;7.414;2023-06-22T13:39:29;23.50;99.90
2543;DHT22;1116;51.502;7.414;2023-06-22T13:42:03;23.50;99.90
2543;DHT22;1116;51.502;7.414;2023-06-22T13:44:34;23.50;99.90
2543;DHT22;1116;51.502;7.414;2023-06-22T13:47:06;23.60;99.90
2543;DHT22;1116;51.502;7.414;2023-06-22T13:49:37;23.70;99.90
2543;DHT22;1116;51.502;7.414;2023-06-22T13:52:08;23.80;99.90
2543;DHT22;1116;51.502;7.414;2023-06-22T13:54:40;23.70;99.90
2543;DHT22;1116;51.502;7.414;2023-06-22T13:57:14;23.80;99.90
2543;DHT22;1116;51.502;7.414;2023-06-22T13:59:45;23.80;99.90
2543;DHT22;1116;51.502;7.414;2023-06-22T14:02:17;23.70;99.90
2543;DHT22;1116;51.502;7.414;2023-06-22T14:04:47;23.70;99.90
2543;DHT22;1116;51.502;7.414;2023-06-22T14:07:19;23.60;99.90
2543;DHT22;1116;51.502;7.414;2023-06-22T14:09:50;23.50;99.90
2543;DHT22;1116;51.502;7.414;2023-06-22T14:12:24;23.50;99.90
2543;DHT22;1116;51.502;7.414;2023-06-22T14:14:55;23.50;99.90
2543;DHT22;1116;51.502;7.414;2023-06-22T14:17:26;23.50;99.90
2543;DHT22;1116;51.502;7.414;2023-06-22T14:19:57;23.40;99.90
2543;DHT22;1116;51.502;7.414;2023-06-22T14:22:28;23.50;99.90
2543;DHT22;1116;51.502;7.414;2023-06-22T14:24:59;23.60;99.90
2543;DHT22;1116;51.502;7.414;2023-06-22T14:27:33;23.90;99.90
2543;DHT22;1116;51.502;7.414;2023-06-22T14:30:06;23.60;99.90
2543;DHT22;1116;51.502;7.414;2023-06-22T14:32:37;23.60;99.90
2543;DHT22;1116;51.502;7.414;2023-06-22T14:35:08;23.70;99.90
2543;DHT22;1116;51.502;7.414;2023-06-22T14:37:39;24.00;99.90
2543;DHT22;1116;51.502;7.414;2023-06-22T14:40:12;24.10;99.90
2543;DHT22;1116;51.502;7.414;2023-06-22T14:42:48;24.10;99.90
2543;DHT22;1116;51.502;7.414;2023-06-22T14:45:27;24.10;99.90
2543;DHT22;1116;51.502;7.414;2023-06-22T14:47:59;24.00;99.90
2543;DHT22;1116;51.502;7.414;2023-06-22T14:50:36;23.90;99.90
2543;DHT22;1116;51.502;7.414;2023-06-22T14:53:07;23.80;99.90
2543;DHT22;1116;51.502;7.414;2023-06-22T14:55:38;23.80;99.90
2543;DHT22;1116;51.502;7.414;2023-06-22T14:58:12;23.70;99.90
2543;DHT22;1116;51.502;7.414;2023-06-22T15:00:43;23.60;99.90
2543;DHT22;1116;51.502;7.414;2023-06-22T15:03:14;23.50;99.90
2543;DHT22;1116;51.502;7.414;2023-06-22T15:05:49;23.50;99.90
2543;DHT22;1116;51.502;7.414;2023-06-22T15:08:21;23.60;99.90
2543;DHT22;1116;51.502;7.414;2023-06-22T15:10:52;23.70;99.90
2543;DHT22;1116;51.502;7.414;2023-06-22T15:13:26;23.70;99.90
2543;DHT22;1116;51.502;7.414;2023-06-22T15:15:58;23.70;99.90
2543;DHT22;1116;51.502;7.414;2023-06-22T15:18:29;23.90;99.90
2543;DHT22;1116;51.502;7.414;2023-06-22T15:21:02;24.10;99.90
2543;DHT22;1116;51.502;7.414;2023-06-22T15:23:33;23.80;99.90
2543;DHT22;1116;51.502;7.414;2023-06-22T15:26:04;24.00;99.90
2543;DHT22;1116;51.502;7.414;2023-06-22T15:28:40;23.90;99.90
2543;DHT22;1116;51.502;7.414;2023-06-22T15:31:11;24.00;99.90
2543;DHT22;1116;51.502;7.414;2023-06-22T15:33:42;23.80;99.90
2543;DHT22;1116;51.502;7.414;2023-06-22T15:36:13;23.80;99.90
2543;DHT22;1116;51.502;7.414;2023-06-22T15:38:46;23.60;99.90
2543;DHT22;1116;51.502;7.414;2023-06-22T15:41:17;23.50;99.90
2543;DHT22;1116;51.502;7.414;2023-06-22T15:43:50;23.40;99.90
2543;DHT22;1116;51.502;7.414;2023-06-22T15:46:21;23.30;99.90
2543;DHT22;1116;51.502;7.414;2023-06-22T15:48:52;23.20;99.90
2543;DHT22;1116;51.502;7.414;2023-06-22T15:51:24;23.20;99.90
2543;DHT22;1116;51.502;7.414;2023-06-22T15:53:56;23.10;99.90
2543;DHT22;1116;51.502;7.414;2023-06-22T15:56:27;23.10;99.90
2543;DHT22;1116;51.502;7.414;2023-06-22T15:59:01;23.00;99.90
2543;DHT22;1116;51.502;7.414;2023-06-22T16:01:32;22.90;99.90
2543;DHT22;1116;51.502;7.414;2023-06-22T16:04:04;23.00;99.90
2543;DHT22;1116;51.502;7.414;2023-06-22T16:06:35;22.90;99.90
2543;DHT22;1116;51.502;7.414;2023-06-22T16:09:06;22.80;99.90
2543;DHT22;1116;51.502;7.414;2023-06-22T16:11:37;22.90;99.90
2543;DHT22;1116;51.502;7.414;2023-06-22T16:14:11;22.80;99.90
2543;DHT22;1116;51.502;7.414;2023-06-22T16:16:42;22.90;99.90
2543;DHT22;1116;51.502;7.414;2023-06-22T16:19:13;22.80;99.90
2543;DHT22;1116;51.502;7.414;2023-06-22T16:21:44;22.70;99.90
2543;DHT22;1116;51.502;7.414;2023-06-22T16:24:17;22.50;99.90
2543;DHT22;1116;51.502;7.414;2023-06-22T16:26:49;22.30;99.90
2543;DHT22;1116;51.502;7.414;2023-06-22T16:29:22;22.00;99.90
2543;DHT22;1116;51.502;7.414;2023-06-22T16:31:53;21.90;99.90
2543;DHT22;1116;51.502;7.414;2023-06-22T16:34:25;21.80;99.90
2543;DHT22;1116;51.502;7.414;2023-06-22T16:36:55;21.80;99.90
2543;DHT22;1116;51.502;7.414;2023-06-22T16:39:26;21.70;99.90
2543;DHT22;1116;51.502;7.414;2023-06-22T16:41:57;21.40;99.90